createdAt,value
2019-04-05T00:00:24.551Z,67.49
2019-04-05T00:02:56.320Z,67.50
2019-04-05T00:05:28.003Z,67.61
2019-04-05T00:08:00.360Z,67.75
2019-04-05T00:10:32.122Z,67.82
2019-04-05T00:13:04.069Z,67.85
2019-04-05T00:15:38.018Z,67.99
2019-04-05T00:18:08.748Z,68.16
2019-04-05T00:20:41.410Z,68.35
2019-04-05T00:23:13.078Z,68.35
2019-04-05T00:25:44.813Z,68.33
2019-04-05T00:28:16.619Z,68.41
2019-04-05T00:30:48.450Z,68.53
2019-04-05T00:33:19.996Z,68.70
2019-04-05T00:35:51.458Z,68.74
2019-04-05T00:38:23.231Z,68.85
2019-04-05T00:40:56.010Z,68.85
2019-04-05T00:43:27.752Z,68.86
2019-04-05T00:45:59.242Z,68.91
2019-04-05T00:48:30.991Z,69.19
2019-04-05T00:51:02.741Z,69.30
2019-04-05T00:53:34.506Z,69.47
2019-04-05T00:56:06.048Z,69.58
2019-04-05T00:58:38.020Z,69.75
2019-04-05T01:01:09.580Z,69.83
2019-04-05T01:03:41.447Z,69.93
2019-04-05T01:06:12.973Z,70.06
2019-04-05T01:08:44.973Z,70.21
2019-04-05T01:11:16.828Z,70.25
2019-04-05T01:13:48.717Z,70.39
2019-04-05T01:16:20.272Z,70.42
2019-04-05T01:18:52.694Z,70.48
2019-04-05T01:21:24.291Z,70.59
2019-04-05T01:23:56.128Z,70.70
2019-04-05T01:26:27.795Z,70.81
2019-04-05T01:28:59.339Z,70.86
2019-04-05T01:31:30.791Z,70.92
2019-04-05T01:34:05.379Z,70.93
2019-04-05T01:36:35.744Z,70.89
2019-04-05T01:39:07.308Z,70.83
2019-04-05T01:41:39.062Z,70.69
2019-04-05T01:44:10.688Z,70.60
2019-04-05T01:46:43.187Z,70.58
2019-04-05T01:49:14.867Z,70.65
2019-04-05T01:51:46.704Z,70.68
2019-04-05T01:54:18.363Z,70.64
2019-04-05T01:56:50.037Z,70.58
2019-04-05T01:59:21.894Z,70.52
2019-04-05T02:01:53.331Z,70.45
2019-04-05T02:04:24.908Z,70.46
2019-04-05T02:06:56.442Z,70.44
2019-04-05T02:09:28.201Z,70.46
2019-04-05T02:11:59.877Z,70.48
2019-04-05T02:14:31.622Z,70.62
2019-04-05T02:17:03.302Z,70.65
2019-04-05T02:19:34.759Z,70.68
2019-04-05T02:22:06.509Z,70.71
2019-04-05T02:24:38.280Z,70.78
2019-04-05T02:27:09.827Z,70.85
2019-04-05T02:29:41.673Z,70.91
2019-04-05T02:32:14.286Z,71.00
2019-04-05T02:34:46.214Z,71.13
2019-04-05T02:37:17.698Z,71.18
2019-04-05T02:39:49.641Z,71.29
2019-04-05T02:42:21.525Z,71.24
2019-04-05T02:44:52.978Z,71.19
2019-04-05T02:47:24.939Z,71.17
2019-04-05T02:49:57.284Z,71.22
2019-04-05T02:52:29.148Z,71.27
2019-04-05T02:55:00.821Z,71.29
2019-04-05T02:57:32.501Z,71.32
2019-04-05T03:00:04.965Z,71.35
2019-04-05T03:02:36.602Z,71.57
2019-04-05T03:05:08.247Z,71.73
2019-04-05T03:07:39.924Z,71.86
2019-04-05T03:10:14.536Z,71.96
2019-04-05T03:12:46.825Z,72.02
2019-04-05T03:15:18.586Z,71.91
2019-04-05T03:17:50.447Z,71.85
2019-04-05T03:20:21.925Z,71.86
2019-04-05T03:22:53.749Z,71.87
2019-04-05T03:25:25.428Z,71.83
2019-04-05T03:27:57.180Z,71.79
2019-04-05T03:30:28.526Z,71.75
2019-04-05T03:33:00.465Z,71.74
2019-04-05T03:35:32.051Z,71.71
2019-04-05T03:38:03.589Z,71.78
2019-04-05T03:40:35.556Z,71.83
2019-04-05T03:43:07.434Z,71.95
2019-04-05T03:45:39.478Z,72.00
2019-04-05T03:48:11.085Z,71.99
2019-04-05T03:50:45.059Z,71.94
2019-04-05T03:53:16.116Z,71.98
2019-04-05T03:55:47.871Z,71.93
2019-04-05T03:58:19.305Z,71.93
2019-04-05T04:00:50.969Z,71.90
2019-04-05T04:03:22.718Z,71.87
2019-04-05T04:06:02.491Z,71.79
2019-04-05T04:08:34.039Z,71.72
2019-04-05T04:11:05.782Z,71.73
2019-04-05T04:13:37.251Z,71.72
2019-04-05T04:16:08.918Z,71.64
2019-04-05T04:18:40.767Z,71.50
2019-04-05T04:21:32.302Z,71.34
2019-04-05T04:24:06.025Z,71.11
2019-04-05T04:26:38.904Z,70.86
2019-04-05T04:29:10.744Z,70.71
2019-04-05T04:31:42.406Z,70.52
2019-04-05T04:34:14.169Z,70.44
2019-04-05T04:36:46.019Z,70.38
2019-04-05T04:39:17.900Z,70.11
2019-04-05T04:41:49.644Z,69.96
2019-04-05T04:44:20.994Z,69.83
2019-04-05T04:46:54.495Z,69.72
2019-04-05T04:49:26.354Z,69.56
2019-04-05T04:51:57.886Z,69.53
2019-04-05T04:54:29.352Z,69.49
2019-04-05T04:57:01.322Z,69.29
2019-04-05T04:59:33.171Z,69.09
2019-04-05T05:02:05.151Z,68.90
2019-04-05T05:04:36.691Z,68.67
2019-04-05T05:07:08.767Z,68.35
2019-04-05T05:09:40.202Z,68.12
2019-04-05T05:12:12.082Z,67.92
2019-04-05T05:14:43.838Z,67.75
2019-04-05T05:17:15.279Z,67.58
2019-04-05T05:19:47.178Z,67.50
2019-04-05T05:22:18.998Z,67.08
2019-04-05T05:24:50.470Z,66.77
2019-04-05T05:27:22.130Z,66.55
2019-04-05T05:29:54.163Z,66.24
2019-04-05T05:32:25.784Z,65.84
2019-04-05T05:35:02.203Z,65.38
2019-04-05T05:37:32.795Z,65.09
2019-04-05T05:40:07.665Z,64.79
2019-04-05T05:42:39.137Z,64.58
2019-04-05T05:45:10.879Z,64.24
2019-04-05T05:47:51.579Z,64.04
2019-04-05T05:50:15.647Z,63.76
2019-04-05T05:52:48.107Z,63.52
2019-04-05T05:55:19.660Z,63.20
2019-04-05T05:57:54.356Z,62.95
2019-04-05T06:00:25.041Z,62.61
2019-04-05T06:02:56.886Z,62.27
2019-04-05T06:05:28.961Z,61.96
2019-04-05T06:08:00.999Z,61.64
2019-04-05T06:10:33.310Z,61.34
2019-04-05T06:13:07.067Z,61.02
2019-04-05T06:15:37.845Z,60.84
2019-04-05T06:18:11.858Z,60.68
2019-04-05T06:20:43.316Z,60.79
2019-04-05T06:23:15.094Z,60.77
2019-04-05T06:25:47.127Z,60.61
2019-04-05T06:28:18.946Z,60.39
2019-04-05T06:30:50.866Z,59.91
2019-04-05T06:33:31.465Z,59.47
2019-04-05T06:35:56.033Z,59.04
2019-04-05T06:38:28.602Z,58.67
2019-04-05T06:41:00.369Z,58.17
2019-04-05T06:43:31.798Z,57.63
2019-04-05T06:46:03.754Z,56.35
2019-04-05T06:48:35.435Z,55.56
2019-04-05T06:51:07.073Z,54.81
2019-04-05T06:53:38.951Z,54.21
2019-04-05T06:56:10.385Z,53.55
2019-04-05T06:58:42.411Z,53.13
2019-04-05T07:01:14.260Z,52.84
2019-04-05T07:03:45.643Z,52.53
2019-04-05T07:06:17.547Z,52.20
2019-04-05T07:08:54.035Z,50.64
2019-04-05T07:11:22.704Z,50.02
2019-04-05T07:13:55.621Z,48.85
2019-04-05T07:16:27.432Z,47.92
2019-04-05T07:18:59.314Z,45.50
2019-04-05T07:21:31.196Z,43.28
2019-04-05T07:24:02.935Z,42.26
2019-04-05T07:26:35.387Z,42.26
2019-04-05T07:29:07.054Z,41.95
2019-04-05T07:31:38.489Z,40.98
2019-04-05T07:34:10.155Z,41.15
2019-04-05T07:36:41.726Z,41.72
2019-04-05T07:39:13.575Z,41.54
2019-04-05T07:41:45.830Z,40.00
2019-04-05T07:44:17.414Z,39.56
2019-04-05T07:46:49.077Z,39.93
2019-04-05T07:49:20.922Z,39.77
2019-04-05T07:51:52.902Z,39.80
2019-04-05T07:54:24.357Z,38.79
2019-04-05T07:56:56.113Z,38.90
2019-04-05T07:59:27.751Z,37.90
2019-04-05T08:01:59.675Z,38.33
2019-04-05T08:04:31.187Z,38.34
2019-04-05T08:07:03.683Z,36.58
2019-04-05T08:09:35.434Z,36.61
2019-04-05T08:12:07.162Z,37.14
2019-04-05T08:14:38.731Z,36.53
2019-04-05T08:17:10.375Z,37.04
2019-04-05T08:19:41.846Z,36.65
2019-04-05T08:22:13.296Z,36.44
2019-04-05T08:24:45.268Z,35.72
2019-04-05T08:27:16.659Z,35.62
2019-04-05T08:29:48.574Z,35.90
2019-04-05T08:32:20.130Z,36.45
2019-04-05T08:34:51.686Z,34.21
2019-04-05T08:37:23.531Z,34.24
2019-04-05T08:39:55.710Z,33.42
2019-04-05T08:42:28.192Z,31.89
2019-04-05T08:45:00.559Z,32.14
2019-04-05T08:47:32.115Z,32.59
2019-04-05T08:50:04.777Z,31.89
2019-04-05T08:52:36.220Z,30.75
2019-04-05T08:55:08.218Z,30.58
2019-04-05T08:57:39.982Z,29.85
2019-04-05T09:00:11.740Z,29.75
2019-04-05T09:02:43.501Z,30.73
2019-04-05T09:05:15.257Z,29.75
2019-04-05T09:07:46.912Z,29.13
2019-04-05T09:10:18.362Z,29.35
2019-04-05T09:12:50.925Z,30.74
2019-04-05T09:15:22.477Z,30.29
2019-04-05T09:17:54.155Z,28.85
2019-04-05T09:20:25.607Z,28.15
2019-04-05T09:22:57.368Z,28.56
2019-04-05T09:25:29.112Z,28.77
2019-04-05T09:28:00.903Z,28.83
2019-04-05T09:30:32.644Z,29.89
2019-04-05T09:33:04.080Z,29.27
2019-04-05T09:35:36.657Z,27.97
2019-04-05T09:38:08.444Z,27.74
2019-04-05T09:40:41.860Z,27.94
2019-04-05T09:43:13.235Z,27.85
2019-04-05T09:45:45.153Z,27.55
2019-04-05T09:48:17.114Z,27.53
2019-04-05T09:50:48.670Z,27.62
2019-04-05T09:53:20.531Z,28.43
2019-04-05T09:55:52.006Z,27.77
2019-04-05T09:58:23.732Z,27.66
2019-04-05T10:00:57.043Z,27.73
2019-04-05T10:03:28.787Z,29.23
2019-04-05T10:06:02.002Z,28.39
2019-04-05T10:08:33.733Z,26.85
2019-04-05T10:11:05.204Z,26.88
2019-04-05T10:13:37.562Z,27.00
2019-04-05T10:16:09.349Z,28.45
2019-04-05T10:18:41.202Z,28.40
2019-04-05T10:21:12.852Z,27.59
2019-04-05T10:23:44.701Z,28.48
2019-04-05T10:26:16.373Z,28.00
2019-04-05T10:28:47.894Z,27.16
2019-04-05T10:31:19.490Z,27.87
2019-04-05T10:33:51.441Z,27.84
2019-04-05T10:36:23.212Z,28.79
2019-04-05T10:38:54.697Z,28.85
2019-04-05T10:41:26.407Z,28.22
2019-04-05T10:43:58.485Z,27.22
2019-04-05T10:46:30.143Z,27.45
2019-04-05T10:49:01.581Z,26.61
2019-04-05T10:51:33.355Z,26.33
2019-04-05T10:54:04.905Z,25.97
2019-04-05T10:56:36.667Z,25.60
2019-04-05T10:59:08.738Z,26.39
2019-04-05T11:01:40.169Z,26.05
2019-04-05T11:04:11.719Z,26.37
2019-04-05T11:06:44.692Z,27.82
2019-04-05T11:09:16.183Z,26.21
2019-04-05T11:11:47.638Z,25.79
2019-04-05T11:14:19.188Z,25.43
2019-04-05T11:16:58.201Z,25.99
2019-04-05T11:19:23.719Z,25.96
2019-04-05T11:21:55.377Z,25.65
2019-04-05T11:24:26.744Z,27.40
2019-04-05T11:26:58.400Z,25.69
2019-04-05T11:29:30.068Z,26.46
2019-04-05T11:32:01.806Z,26.12
2019-04-05T11:34:33.362Z,26.22
2019-04-05T11:37:05.137Z,25.44
2019-04-05T11:39:36.901Z,24.85
2019-04-05T11:42:08.765Z,24.97
2019-04-05T11:44:40.216Z,24.93
2019-04-05T11:47:11.884Z,24.91
2019-04-05T11:49:43.632Z,24.91
2019-04-05T11:52:15.260Z,25.42
2019-04-05T11:54:47.360Z,25.41
2019-04-05T11:57:18.815Z,25.11
2019-04-05T11:59:50.625Z,25.10
2019-04-05T12:02:23.895Z,24.35
2019-04-05T12:04:57.261Z,24.46
2019-04-05T12:07:29.119Z,25.81
2019-04-05T12:10:00.578Z,25.80
2019-04-05T12:12:31.901Z,24.47
2019-04-05T12:15:06.464Z,24.29
2019-04-05T12:17:38.495Z,24.29
2019-04-05T12:20:13.430Z,24.49
2019-04-05T12:22:44.999Z,24.68
2019-04-05T12:25:16.766Z,24.22
2019-04-05T12:27:48.505Z,24.07
2019-04-05T12:30:26.941Z,23.99
2019-04-05T12:32:58.481Z,24.21
2019-04-05T12:35:30.253Z,23.88
2019-04-05T12:38:01.709Z,24.08
2019-04-05T12:40:33.475Z,24.60
2019-04-05T12:43:05.107Z,23.96
2019-04-05T12:45:36.769Z,23.75
2019-04-05T12:48:08.239Z,24.48
2019-04-05T12:50:44.721Z,24.03
2019-04-05T12:53:14.214Z,24.72
2019-04-05T12:55:45.875Z,24.38
2019-04-05T12:58:18.022Z,25.18
2019-04-05T13:00:49.898Z,24.21
2019-04-05T13:03:21.469Z,24.07
2019-04-05T13:05:52.991Z,23.81
2019-04-05T13:08:24.674Z,23.99
2019-04-05T13:10:57.022Z,23.96
2019-04-05T13:13:28.603Z,24.94
2019-04-05T13:16:00.498Z,24.58
2019-04-05T13:18:32.417Z,23.85
2019-04-05T13:21:14.449Z,24.42
2019-04-05T13:23:37.463Z,23.81
2019-04-05T13:26:11.460Z,24.17
2019-04-05T13:28:42.543Z,25.05
2019-04-05T13:31:18.283Z,25.12
2019-04-05T13:33:48.520Z,24.85
2019-04-05T13:36:19.959Z,25.17
2019-04-05T13:38:54.979Z,24.57
2019-04-05T13:41:24.850Z,25.09
2019-04-05T13:43:56.489Z,23.85
2019-04-05T13:46:28.359Z,23.46
2019-04-05T13:48:59.772Z,23.56
2019-04-05T13:51:32.115Z,23.66
2019-04-05T13:54:03.624Z,23.87
2019-04-05T13:56:35.284Z,23.74
2019-04-05T13:59:07.744Z,23.57
2019-04-05T14:01:39.425Z,23.64
2019-04-05T14:04:12.407Z,23.35
2019-04-05T14:06:44.265Z,23.69
2019-04-05T14:09:16.030Z,23.81
2019-04-05T14:11:47.562Z,24.04
2019-04-05T14:14:19.134Z,24.23
2019-04-05T14:16:53.868Z,24.19
2019-04-05T14:19:24.113Z,24.26
2019-04-05T14:22:07.797Z,23.58
2019-04-05T14:24:29.149Z,23.44
2019-04-05T14:27:02.950Z,23.68
2019-04-05T14:29:33.895Z,23.32
2019-04-05T14:32:20.014Z,23.13
2019-04-05T14:34:39.252Z,23.43
2019-04-05T14:37:11.005Z,24.37
2019-04-05T14:39:42.869Z,24.55
2019-04-05T14:42:15.650Z,25.27
2019-04-05T14:44:47.190Z,25.37
2019-04-05T14:47:19.933Z,24.95
2019-04-05T14:49:51.543Z,24.63
2019-04-05T14:52:25.506Z,24.29
2019-04-05T14:54:57.770Z,23.96
2019-04-05T14:57:29.467Z,23.97
2019-04-05T15:00:00.936Z,23.87
2019-04-05T15:02:32.767Z,23.81
2019-04-05T15:05:06.112Z,24.27
2019-04-05T15:07:38.166Z,26.29
2019-04-05T15:10:09.516Z,27.27
2019-04-05T15:12:41.577Z,26.56
2019-04-05T15:15:13.027Z,26.12
2019-04-05T15:17:48.166Z,27.04
2019-04-05T15:20:18.085Z,26.55
2019-04-05T15:22:49.843Z,27.18
2019-04-05T15:25:21.995Z,26.99
2019-04-05T15:27:55.530Z,27.43
2019-04-05T15:30:26.765Z,27.07
2019-04-05T15:33:00.041Z,27.23
2019-04-05T15:35:31.919Z,27.47
2019-04-05T15:38:03.556Z,28.22
2019-04-05T15:40:35.136Z,28.70
2019-04-05T15:43:06.990Z,29.02
2019-04-05T15:45:38.642Z,28.85
2019-04-05T15:48:09.993Z,28.79
2019-04-05T15:50:41.850Z,29.17
2019-04-05T15:53:13.626Z,29.83
2019-04-05T15:55:45.295Z,30.20
2019-04-05T15:58:16.837Z,30.12
2019-04-05T16:00:49.616Z,29.81
2019-04-05T16:03:21.385Z,29.83
2019-04-05T16:05:53.146Z,29.95
2019-04-05T16:08:24.831Z,30.16
2019-04-05T16:10:58.294Z,30.85
2019-04-05T16:13:30.165Z,30.85
2019-04-05T16:16:01.720Z,30.63
2019-04-05T16:18:33.582Z,30.62
2019-04-05T16:21:05.339Z,30.96
2019-04-05T16:23:37.101Z,31.26
2019-04-05T16:26:09.066Z,31.57
2019-04-05T16:28:41.188Z,31.59
2019-04-05T16:31:12.790Z,31.62
2019-04-05T16:33:44.347Z,31.91
2019-04-05T16:36:15.900Z,32.21
2019-04-05T16:38:47.437Z,32.47
2019-04-05T16:41:19.091Z,32.63
2019-04-05T16:43:51.681Z,32.80
2019-04-05T16:46:23.549Z,33.36
2019-04-05T16:48:55.109Z,34.35
2019-04-05T16:51:26.654Z,35.11
2019-04-05T16:54:04.238Z,35.35
2019-04-05T16:56:36.214Z,35.60
2019-04-05T16:59:07.772Z,35.91
2019-04-05T17:01:39.512Z,36.37
2019-04-05T17:04:11.088Z,36.99
2019-04-05T17:06:43.813Z,37.54
2019-04-05T17:09:15.422Z,37.81
2019-04-05T17:11:47.064Z,37.92
2019-04-05T17:14:18.845Z,39.26
2019-04-05T17:16:50.905Z,39.26
2019-04-05T17:19:22.560Z,40.05
2019-04-05T17:21:54.312Z,40.29
2019-04-05T17:24:26.580Z,40.58
2019-04-05T17:26:58.135Z,40.58
2019-04-05T17:29:29.585Z,40.70
2019-04-05T17:32:01.140Z,40.85
2019-04-05T17:34:33.332Z,41.05
2019-04-05T17:37:04.776Z,41.30
2019-04-05T17:39:36.110Z,41.61
2019-04-05T17:42:07.987Z,41.78
2019-04-05T17:44:39.746Z,41.88
2019-04-05T17:47:11.179Z,42.11
2019-04-05T17:49:42.956Z,42.22
2019-04-05T17:52:14.816Z,42.25
2019-04-05T17:54:46.679Z,41.98
2019-04-05T17:57:18.218Z,41.93
2019-04-05T17:59:49.830Z,42.22
2019-04-05T18:02:22.984Z,43.01
2019-04-05T18:04:54.542Z,43.54
2019-04-05T18:07:27.264Z,43.27
2019-04-05T18:09:59.291Z,42.59
2019-04-05T18:12:30.825Z,42.02
2019-04-05T18:15:02.598Z,41.74
2019-04-05T18:17:55.252Z,42.01
2019-04-05T18:20:26.718Z,42.61
2019-04-05T18:22:58.655Z,43.26
2019-04-05T18:25:30.326Z,44.25
2019-04-05T18:28:01.884Z,45.59
2019-04-05T18:30:33.508Z,47.75
2019-04-05T18:33:05.180Z,48.85
2019-04-05T18:35:37.063Z,49.60
2019-04-05T18:38:08.624Z,50.08
2019-04-05T18:40:40.637Z,50.48
2019-04-05T18:43:12.241Z,51.06
2019-04-05T18:45:43.900Z,51.28
2019-04-05T18:48:15.652Z,51.69
2019-04-05T18:50:48.703Z,52.02
2019-04-05T18:53:20.306Z,52.00
2019-04-05T18:55:51.862Z,51.64
2019-04-05T18:58:23.527Z,50.86
2019-04-05T19:00:55.071Z,50.64
2019-04-05T19:03:26.531Z,50.68
2019-04-05T19:05:58.574Z,50.67
2019-04-05T19:08:39.518Z,50.44
2019-04-05T19:11:03.246Z,50.19
2019-04-05T19:13:34.802Z,50.36
2019-04-05T19:16:06.319Z,50.44
2019-04-05T19:18:38.546Z,50.57
2019-04-05T19:21:10.264Z,50.86
2019-04-05T19:23:50.686Z,51.04
2019-04-05T19:26:14.913Z,51.38
2019-04-05T19:28:46.491Z,52.17
2019-04-05T19:49:14.081Z,55.00
2019-04-05T19:51:45.941Z,55.36
2019-04-05T19:54:19.041Z,55.60
2019-04-05T19:56:50.736Z,56.10
2019-04-05T19:59:22.457Z,56.49
2019-04-05T20:01:54.309Z,56.72
2019-04-05T20:04:27.995Z,56.88
2019-04-05T20:07:00.104Z,56.76
2019-04-05T20:09:31.670Z,56.80
2019-04-05T20:12:03.494Z,56.99
2019-04-05T20:14:35.026Z,57.18
2019-04-05T20:17:07.007Z,57.63
2019-04-05T20:19:38.667Z,57.90
2019-04-05T20:22:10.588Z,58.03
2019-04-05T20:24:42.182Z,58.26
2019-04-05T20:27:13.944Z,58.67
2019-04-05T20:29:45.383Z,58.98
2019-04-05T20:32:17.273Z,59.22
2019-04-05T20:34:49.258Z,59.50
2019-04-05T20:37:20.861Z,59.69
2019-04-05T20:39:53.844Z,59.91
2019-04-05T20:42:25.360Z,60.08
2019-04-05T20:44:57.177Z,60.30
2019-04-05T20:47:28.920Z,60.43
2019-04-05T20:50:00.509Z,60.58
2019-04-05T20:52:32.220Z,60.64
2019-04-05T20:55:06.697Z,60.71
2019-04-05T20:57:38.132Z,60.85
2019-04-05T21:00:10.645Z,61.09
2019-04-05T21:02:43.593Z,61.26
2019-04-05T21:05:24.808Z,61.39
2019-04-05T21:07:48.748Z,61.60
2019-04-05T21:10:20.401Z,61.68
2019-04-05T21:12:52.262Z,61.81
2019-04-05T21:15:23.936Z,61.76
2019-04-05T21:17:55.681Z,61.87
2019-04-05T21:20:27.336Z,62.02
2019-04-05T21:22:59.107Z,62.27
2019-04-05T21:25:30.863Z,62.42
2019-04-05T21:28:02.589Z,62.58
2019-04-05T21:30:34.267Z,62.77
2019-04-05T21:33:05.834Z,63.05
2019-04-05T21:35:37.493Z,63.07
2019-04-05T21:38:09.353Z,63.03
2019-04-05T21:40:40.880Z,63.10
2019-04-05T21:43:12.565Z,63.16
2019-04-05T21:45:44.323Z,63.20
2019-04-05T21:48:16.080Z,63.37
2019-04-05T21:50:48.046Z,63.67
2019-04-05T21:53:20.112Z,63.86
2019-04-05T21:55:51.955Z,64.11
2019-04-05T21:58:25.969Z,64.31
2019-04-05T22:01:02.969Z,64.46
2019-04-05T22:03:36.981Z,64.42
2019-04-05T22:06:08.656Z,64.30
2019-04-05T22:08:40.705Z,64.36
2019-04-05T22:11:12.565Z,64.54
2019-04-05T22:13:44.241Z,64.79
2019-04-05T22:16:16.059Z,64.87
2019-04-05T22:18:48.171Z,65.04
2019-04-05T22:21:20.019Z,65.09
2019-04-05T22:23:52.619Z,65.22
2019-04-05T22:26:24.236Z,65.38
2019-04-05T22:28:56.300Z,65.53
2019-04-05T22:31:28.074Z,65.65
2019-04-05T22:34:00.063Z,65.67
2019-04-05T22:36:31.711Z,65.54
2019-04-05T22:39:04.365Z,65.94
2019-04-05T22:41:36.802Z,66.06
2019-04-05T22:44:08.838Z,66.15
2019-04-05T22:46:40.905Z,66.33
2019-04-05T22:49:13.689Z,65.75
2019-04-05T22:51:45.317Z,65.77
2019-04-05T22:54:17.314Z,65.88
2019-04-05T22:56:49.146Z,66.12
2019-04-05T22:59:21.046Z,66.27
2019-04-05T23:01:52.983Z,66.44
2019-04-05T23:04:24.972Z,66.80
2019-04-05T23:06:56.800Z,66.96
2019-04-05T23:09:29.108Z,67.19
2019-04-05T23:12:00.701Z,67.42
2019-04-05T23:14:32.741Z,67.56
2019-04-05T23:17:04.671Z,67.62
2019-04-05T23:19:36.570Z,67.66
2019-04-05T23:22:08.414Z,67.74
2019-04-05T23:24:40.143Z,67.79
2019-04-05T23:27:12.047Z,67.76
2019-04-05T23:29:44.072Z,67.61
2019-04-05T23:32:16.078Z,67.43
2019-04-05T23:34:47.649Z,67.37
2019-04-05T23:37:19.802Z,67.30
2019-04-05T23:39:51.767Z,67.33
2019-04-05T23:42:24.273Z,67.29
2019-04-05T23:44:56.414Z,67.24
2019-04-05T23:47:29.274Z,67.19
2019-04-05T23:50:01.419Z,67.19
2019-04-05T23:52:34.116Z,67.20
2019-04-05T23:55:07.889Z,67.10
2019-04-05T23:57:40.195Z,66.90
